createdAt,value
2019-01-22T00:01:43.668Z,-5.30
2019-01-22T00:04:59.446Z,-5.30
2019-01-22T00:15:35.334Z,-5.30
2019-01-22T00:18:51.117Z,-5.20
2019-01-22T00:22:06.963Z,-5.20
2019-01-22T00:25:42.293Z,-5.30
2019-01-22T00:28:58.423Z,-5.20
2019-01-22T00:32:14.184Z,-5.20
2019-01-22T00:35:29.727Z,-5.20
2019-01-22T00:42:24.877Z,-5.10
2019-01-22T00:45:40.440Z,-5.10
2019-01-22T00:52:50.504Z,-5.10
2019-01-22T00:56:06.369Z,-5.10
2019-01-22T00:59:41.518Z,-5.10
2019-01-22T01:03:16.211Z,-5.20
2019-01-22T01:06:33.033Z,-5.20
2019-01-22T01:10:08.272Z,-5.20
2019-01-22T01:13:23.578Z,-5.20
2019-01-22T01:16:38.753Z,-5.30
2019-01-22T01:20:13.913Z,-5.30
2019-01-22T01:23:29.493Z,-5.30
2019-01-22T01:26:45.459Z,-5.30
2019-01-22T01:30:01.409Z,-5.30
2019-01-22T01:33:36.626Z,-5.40
2019-01-22T01:40:57.899Z,-5.30
2019-01-22T01:44:33.427Z,-5.30
2019-01-22T01:48:08.197Z,-5.30
2019-01-22T01:51:24.431Z,-5.30
2019-01-22T01:54:40.130Z,-5.30
2019-01-22T01:57:56.041Z,-5.40
2019-01-22T02:01:11.193Z,-5.30
2019-01-22T02:21:48.452Z,-5.40
2019-01-22T02:29:17.019Z,-5.50
2019-01-22T02:39:29.325Z,-5.80
2019-01-22T02:43:04.287Z,-5.90
2019-01-22T02:50:00.264Z,-5.90
2019-01-22T02:57:15.618Z,-5.90
2019-01-22T03:00:50.606Z,-5.90
2019-01-22T03:04:25.343Z,-5.80
2019-01-22T03:07:40.791Z,-5.80
2019-01-22T03:10:56.601Z,-5.80
2019-01-22T03:14:12.297Z,-5.70
2019-01-22T03:17:47.180Z,-5.60
2019-01-22T03:21:22.611Z,-5.60
2019-01-22T03:24:38.667Z,-5.50
2019-01-22T03:27:54.478Z,-5.50
2019-01-22T03:31:10.163Z,-5.40
2019-01-22T03:34:25.786Z,-5.40
2019-01-22T03:37:41.515Z,-5.40
2019-01-22T03:41:23.665Z,-5.50
2019-01-22T03:45:07.218Z,-5.60
2019-01-22T03:48:49.414Z,-5.60
2019-01-22T03:56:53.327Z,-5.50
2019-01-22T04:00:35.460Z,-5.50
2019-01-22T04:04:17.609Z,-5.60
2019-01-22T04:07:59.726Z,-5.70
2019-01-22T04:11:23.362Z,-5.80
2019-01-22T04:14:46.163Z,-5.90
2019-01-22T04:18:28.266Z,-5.80
2019-01-22T04:22:10.394Z,-5.80
2019-01-22T04:25:53.924Z,-5.70
2019-01-22T04:29:55.317Z,-5.60
2019-01-22T04:33:37.704Z,-5.50
2019-01-22T04:37:19.850Z,-5.50
2019-01-22T04:40:35.966Z,-5.40
2019-01-22T04:43:52.066Z,-5.40
2019-01-22T04:47:27.056Z,-5.40
2019-01-22T04:50:42.779Z,-5.40
2019-01-22T04:54:18.172Z,-5.40
2019-01-22T04:57:53.132Z,-5.40
2019-01-22T05:01:27.733Z,-5.40
2019-01-22T05:04:43.193Z,-5.40
2019-01-22T05:07:59.342Z,-5.30
2019-01-22T05:11:15.093Z,-5.40
2019-01-22T05:14:31.060Z,-5.40
2019-01-22T05:17:47.142Z,-5.40
2019-01-22T05:21:03.116Z,-5.40
2019-01-22T05:24:19.049Z,-5.30
2019-01-22T05:27:34.955Z,-5.40
2019-01-22T05:30:50.798Z,-5.40
2019-01-22T05:34:06.969Z,-5.40
2019-01-22T05:37:22.829Z,-5.40
2019-01-22T05:40:38.687Z,-5.40
2019-01-22T05:43:54.740Z,-5.40
2019-01-22T05:47:10.374Z,-5.40
2019-01-22T05:50:26.069Z,-5.30
2019-01-22T05:57:22.574Z,-5.40
2019-01-22T06:04:18.405Z,-5.40
2019-01-22T06:10:51.269Z,-5.40
2019-01-22T06:21:03.650Z,-5.40
2019-01-22T06:24:19.825Z,-5.40
2019-01-22T06:27:35.201Z,-5.30
2019-01-22T06:30:51.173Z,-5.30
2019-01-22T06:34:06.977Z,-5.30
2019-01-22T06:37:41.743Z,-5.30
2019-01-22T06:40:57.385Z,-5.30
2019-01-22T06:44:32.942Z,-5.40
2019-01-22T06:47:48.441Z,-5.30
2019-01-22T06:51:23.293Z,-5.30
2019-01-22T07:02:00.801Z,-5.30
2019-01-22T07:12:40.126Z,-5.20
2019-01-22T07:15:55.780Z,-5.20
2019-01-22T07:19:11.917Z,-5.20
2019-01-22T07:22:27.851Z,-5.20
2019-01-22T07:26:03.278Z,-5.10
2019-01-22T07:29:18.557Z,-5.10
2019-01-22T07:36:33.921Z,-4.30
2019-01-22T07:43:30.141Z,-2.90
2019-01-22T07:46:45.654Z,-2.40
2019-01-22T07:50:01.614Z,-1.90
2019-01-22T07:53:17.147Z,-1.50
2019-01-22T08:00:12.764Z,-0.80
2019-01-22T08:03:30.025Z,-0.30
2019-01-22T08:14:06.307Z,0.40
2019-01-22T08:17:22.272Z,0.40
2019-01-22T08:20:37.914Z,0.40
2019-01-22T08:23:53.505Z,0.60
2019-01-22T08:27:09.980Z,0.60
2019-01-22T08:30:25.306Z,0.60
2019-01-22T08:37:24.304Z,0.50
2019-01-22T08:44:34.430Z,0.30
2019-01-22T08:47:50.097Z,0.40
2019-01-22T08:51:25.110Z,0.30
2019-01-22T08:58:20.944Z,0.20
2019-01-22T09:09:16.585Z,0.10
2019-01-22T09:16:08.361Z,0.20
2019-01-22T09:26:25.295Z,0.50
2019-01-22T09:33:23.697Z,0.60
2019-01-22T09:47:57.577Z,1.00
2019-01-22T09:51:13.116Z,1.00
2019-01-22T09:54:28.624Z,1.10
2019-01-22T10:01:37.193Z,1.20
2019-01-22T10:04:53.350Z,1.30
2019-01-22T10:12:05.501Z,1.30
2019-01-22T10:15:49.021Z,1.20
2019-01-22T10:18:52.474Z,1.30
2019-01-22T10:22:15.258Z,1.30
2019-01-22T10:25:38.049Z,1.20
2019-01-22T10:29:00.834Z,1.20
2019-01-22T10:32:16.672Z,1.20
2019-01-22T10:35:32.601Z,1.10
2019-01-22T10:38:48.557Z,1.00
2019-01-22T10:42:04.654Z,0.90
2019-01-22T10:45:20.328Z,0.90
2019-01-22T10:52:29.625Z,0.70
2019-01-22T10:59:25.129Z,0.30
2019-01-22T11:02:40.332Z,0.30
2019-01-22T11:05:56.321Z,0.20
2019-01-22T11:09:12.325Z,0.10
2019-01-22T11:12:28.539Z,0.00
2019-01-22T11:15:44.682Z,0.00
2019-01-22T11:19:00.386Z,-0.10
2019-01-22T11:22:16.197Z,-0.10
2019-01-22T11:25:51.202Z,-0.10
2019-01-22T11:29:06.474Z,-0.30
2019-01-22T11:32:41.855Z,-0.40
2019-01-22T11:36:16.763Z,-0.60
2019-01-22T11:39:51.230Z,-0.70
2019-01-22T11:43:06.473Z,-0.70
2019-01-22T11:46:22.239Z,-0.80
2019-01-22T11:49:57.038Z,-0.90
2019-01-22T11:53:12.331Z,-0.90
2019-01-22T11:56:28.351Z,-1.00
2019-01-22T11:59:44.231Z,-1.00
2019-01-22T12:03:00.253Z,-1.10
2019-01-22T12:06:16.160Z,-1.20
2019-01-22T12:09:32.213Z,-1.30
2019-01-22T12:12:47.880Z,-1.40
2019-01-22T12:16:03.514Z,-1.50
2019-01-22T12:19:19.084Z,-1.50
2019-01-22T12:22:34.685Z,-1.50
2019-01-22T12:29:30.926Z,-1.40
2019-01-22T12:32:46.978Z,-1.50
2019-01-22T12:36:02.787Z,-1.50
2019-01-22T12:39:37.683Z,-1.50
2019-01-22T12:46:33.781Z,-1.40
2019-01-22T12:53:28.929Z,-1.20
2019-01-22T12:56:45.020Z,-1.10
2019-01-22T13:00:20.270Z,-1.10
2019-01-22T13:03:37.447Z,-1.10
2019-01-22T13:06:53.208Z,-1.10
2019-01-22T13:10:09.022Z,-1.10
2019-01-22T13:13:24.842Z,-1.10
2019-01-22T13:16:40.737Z,-1.20
2019-01-22T13:19:56.793Z,-1.10
2019-01-22T13:23:12.471Z,-1.10
2019-01-22T13:26:28.360Z,-1.10
2019-01-22T13:30:03.610Z,-1.10
2019-01-22T13:33:19.117Z,-1.20
2019-01-22T13:36:54.260Z,-1.20
2019-01-22T13:40:09.806Z,-1.20
2019-01-22T13:43:25.735Z,-1.30
2019-01-22T13:50:53.418Z,-1.40
2019-01-22T13:54:10.321Z,-1.50
2019-01-22T13:57:25.709Z,-1.60
2019-01-22T14:00:42.031Z,-1.60
2019-01-22T14:03:58.246Z,-1.70
2019-01-22T14:07:14.520Z,-1.80
2019-01-22T14:10:33.727Z,-2.00
2019-01-22T14:13:56.435Z,-2.00
2019-01-22T14:17:11.720Z,-2.10
2019-01-22T14:20:55.318Z,-2.10
2019-01-22T14:24:18.126Z,-2.20
2019-01-22T14:27:40.905Z,-2.20
2019-01-22T14:31:23.044Z,-2.20
2019-01-22T14:34:45.825Z,-2.30
2019-01-22T14:38:08.628Z,-2.30
2019-01-22T14:45:18.289Z,-2.30
2019-01-22T14:52:13.835Z,-2.40
2019-01-22T14:55:29.964Z,-2.40
2019-01-22T14:58:46.046Z,-2.30
2019-01-22T15:02:01.732Z,-2.40
2019-01-22T15:05:17.746Z,-2.40
2019-01-22T15:08:33.818Z,-2.50
2019-01-22T15:11:49.926Z,-2.50
2019-01-22T15:15:25.082Z,-2.60
2019-01-22T15:18:40.518Z,-2.60
2019-01-22T15:36:55.218Z,-2.90
2019-01-22T15:47:11.620Z,-3.00
2019-01-22T15:50:27.670Z,-3.10
2019-01-22T15:53:43.544Z,-3.20
2019-01-22T15:56:59.911Z,-3.30
2019-01-22T16:00:34.850Z,-3.30
2019-01-22T16:07:28.974Z,-3.40
2019-01-22T16:10:46.229Z,-3.50
2019-01-22T16:14:01.473Z,-3.50
2019-01-22T16:17:16.947Z,-3.60
2019-01-22T16:20:32.665Z,-3.60
2019-01-22T16:24:07.463Z,-3.60
2019-01-22T16:27:42.006Z,-3.70
2019-01-22T16:31:17.538Z,-3.70
2019-01-22T16:34:32.993Z,-3.80
2019-01-22T16:37:48.810Z,-3.80
2019-01-22T16:41:04.629Z,-3.90
2019-01-22T16:44:20.218Z,-3.90
2019-01-22T16:47:36.105Z,-4.00
2019-01-22T16:54:13.021Z,-4.00
2019-01-22T16:57:28.974Z,-4.00
2019-01-22T17:00:45.084Z,-4.00
2019-01-22T17:04:00.726Z,-4.10
2019-01-22T17:07:16.580Z,-4.10
2019-01-22T17:14:09.004Z,-4.20
2019-01-22T17:24:45.998Z,-4.30
2019-01-22T17:28:20.475Z,-4.30
2019-01-22T17:31:55.145Z,-4.30
2019-01-22T17:35:12.529Z,-4.30
2019-01-22T17:38:47.022Z,-4.30
2019-01-22T17:42:03.211Z,-4.30
2019-01-22T17:56:17.510Z,-4.20
2019-01-22T18:07:12.283Z,-4.10
2019-01-22T18:10:28.437Z,-4.10
2019-01-22T18:17:23.496Z,-3.90
2019-01-22T18:20:39.143Z,-3.80
2019-01-22T18:27:49.163Z,-3.80
2019-01-22T18:31:08.473Z,-3.80
2019-01-22T18:34:23.886Z,-3.90
2019-01-22T18:37:40.582Z,-3.90
2019-01-22T18:41:15.678Z,-3.90
2019-01-22T18:52:26.561Z,-4.00
2019-01-22T18:59:35.080Z,-4.10
2019-01-22T19:06:30.678Z,-4.20
2019-01-22T19:09:46.781Z,-4.20
2019-01-22T19:13:02.841Z,-4.20
2019-01-22T19:16:18.809Z,-4.20
2019-01-22T19:19:34.829Z,-4.20
2019-01-22T19:22:50.742Z,-4.30
2019-01-22T19:26:06.225Z,-4.30
2019-01-22T19:29:21.799Z,-4.30
2019-01-22T19:43:20.383Z,-4.40
2019-01-22T19:46:55.573Z,-4.50
2019-01-22T19:54:01.837Z,-4.50
2019-01-22T20:00:59.794Z,-4.60
2019-01-22T20:07:57.610Z,-4.60
2019-01-22T20:32:42.149Z,-4.80
2019-01-22T20:35:58.536Z,-4.80
2019-01-22T20:39:14.023Z,-4.80
2019-01-22T20:46:29.704Z,-4.70
2019-01-22T20:53:55.738Z,-4.70
2019-01-22T20:57:11.264Z,-4.70
2019-01-22T21:00:46.310Z,-4.70
2019-01-22T21:04:21.021Z,-4.70
2019-01-22T21:07:24.466Z,-4.60
2019-01-22T21:10:47.252Z,-4.60
2019-01-22T21:14:29.829Z,-4.60
2019-01-22T21:17:52.611Z,-4.60
2019-01-22T21:21:34.738Z,-4.60
2019-01-22T21:25:16.886Z,-4.60
2019-01-22T21:32:40.794Z,-4.70
2019-01-22T21:36:03.681Z,-4.80
2019-01-22T21:39:26.464Z,-4.90
2019-01-22T21:42:49.349Z,-4.90
2019-01-22T21:46:12.141Z,-5.00
2019-01-22T21:49:34.909Z,-5.00
2019-01-22T21:52:50.912Z,-5.00
2019-01-22T21:56:06.622Z,-5.10
2019-01-22T21:59:22.761Z,-5.10
2019-01-22T22:02:38.763Z,-5.10
2019-01-22T22:09:24.674Z,-5.20
2019-01-22T22:12:47.547Z,-5.30
2019-01-22T22:16:10.410Z,-5.30
2019-01-22T22:19:33.213Z,-5.30
2019-01-22T22:23:31.595Z,-5.30
2019-01-22T22:31:13.252Z,-5.30
2019-01-22T22:34:55.396Z,-5.40
2019-01-22T22:38:18.181Z,-5.40
2019-01-22T22:41:41.281Z,-5.40
2019-01-22T22:45:24.792Z,-5.40
2019-01-22T22:48:39.943Z,-5.40
2019-01-22T22:51:55.981Z,-5.40
2019-01-22T22:55:31.036Z,-5.40
2019-01-22T23:02:38.756Z,-5.50
2019-01-22T23:09:37.791Z,-5.50
2019-01-22T23:13:12.853Z,-5.50
2019-01-22T23:16:47.347Z,-5.50
2019-01-22T23:20:03.149Z,-5.50
2019-01-22T23:23:18.928Z,-5.50
2019-01-22T23:26:34.876Z,-5.50
2019-01-22T23:29:51.015Z,-5.50
2019-01-22T23:33:26.269Z,-5.50
2019-01-22T23:40:41.610Z,-5.50
2019-01-22T23:43:57.708Z,-5.60
2019-01-22T23:47:13.397Z,-5.60
2019-01-22T23:50:48.403Z,-5.60
2019-01-22T23:54:22.982Z,-5.60
2019-01-22T23:57:57.749Z,-5.60
